This is the latest recevied weather packets stored in our database for station/object W1ERB-13. If no packets are shown the sender has not sent any weather packets the latest 1 day(s).
| Time | Temp. | Humidity | Pressure | Rain* | Wind** | Luminosity | Snow |
|---|---|---|---|---|---|---|---|
| 1778007139 | 24.44° C | 53% | 1008 hPa | 0 mm | 1.34 m/s, 221° | 652 W/m² | - |
| 1778006834 | 25° C | 50% | 1008.1 hPa | 0 mm | 2.68 m/s, 147° | 662 W/m² | - |
| 1778006533 | 25.56° C | 48% | 1008.2 hPa | 0 mm | 2.68 m/s, 207° | 666 W/m² | - |
| 1778006229 | 25° C | 48% | 1008.3 hPa | 0 mm | 1.79 m/s, 230° | 657 W/m² | - |
| 1778005927 | 24.44° C | 50% | 1008 hPa | 0 mm | 2.24 m/s, 281° | 665 W/m² | - |
| 1778005622 | 24.44° C | 51% | 1008.4 hPa | 0 mm | 1.79 m/s, 242° | 675 W/m² | - |
| 1778005320 | 24.44° C | 49% | 1008.3 hPa | 0 mm | 2.68 m/s, 117° | 683 W/m² | - |
| 1778005016 | 25° C | 49% | 1008.4 hPa | 0 mm | 1.79 m/s, 227° | 688 W/m² | - |
| 1778004714 | 25° C | 51% | 1008.2 hPa | 0 mm | 0.89 m/s, 249° | 701 W/m² | - |
| 1778004410 | 25° C | 48% | 1008.2 hPa | 0 mm | 1.79 m/s, 221° | 701 W/m² | - |
| 1778004107 | 25° C | 50% | 1008.5 hPa | 0 mm | 0.89 m/s, 284° | 695 W/m² | - |
| 1778003803 | 25° C | 50% | 1008.2 hPa | 0 mm | 0.45 m/s, 212° | 682 W/m² | - |
| 1778003500 | 23.89° C | 53% | 1008.3 hPa | 0 mm | 1.79 m/s, 213° | 691 W/m² | - |
| 1778003197 | 23.89° C | 50% | 1008.3 hPa | 0 mm | 3.13 m/s, 204° | 694 W/m² | - |
| 1778002893 | 24.44° C | 50% | 1008.5 hPa | 0 mm | 2.24 m/s, 303° | 710 W/m² | - |
| 1778002590 | 24.44° C | 52% | 1008.6 hPa | 0 mm | 1.79 m/s, 209° | 711 W/m² | - |
| 1778002286 | 25° C | 50% | 1008.7 hPa | 0 mm | 4.92 m/s, 142° | 715 W/m² | - |
| 1778001984 | 25° C | 49% | 1008.5 hPa | 0 mm | 0.89 m/s, 234° | 715 W/m² | - |
| 1778001680 | 23.89° C | 52% | 1008.4 hPa | 0 mm | 1.34 m/s, 283° | 713 W/m² | - |
| 1778001375 | 23.89° C | 51% | 1008.5 hPa | 0 mm | 0.89 m/s, 242° | 721 W/m² | - |
| 1778001072 | 24.44° C | 52% | 1008.4 hPa | 0 mm | 1.34 m/s, 144° | 723 W/m² | - |
| 1778000769 | 23.89° C | 54% | 1008.6 hPa | 0 mm | 1.34 m/s, 242° | 721 W/m² | - |
| 1778000466 | 24.44° C | 52% | 1008.8 hPa | 0 mm | 1.34 m/s, 210° | 718 W/m² | - |
| 1778000161 | 23.89° C | 53% | 1008.7 hPa | 0 mm | 1.34 m/s, 166° | 721 W/m² | - |
| 1777999857 | 23.89° C | 51% | 1008.9 hPa | 0 mm | 1.79 m/s, 126° | 720 W/m² | - |
* Rain latest hour (hover to see other rain measurements)
** Current wind speed in m/s (hover to see current wind gust speed)